Brookfield, Missouri
Current Conditions -  °F | °C
As of 9:55 AM on Thursday 29 Jan 2015 (Local Time) from KIRK Reporting Station
Overcast Overcast  
Wind Chill: 28°   Ceiling: 2000
Heat Index: 37°   Visibility: 10mi
Dew Point: 30°   Wind: 15mph
Humidity: 76%   Direction: 330°NNW
Pressure: 30.19"   Gusts: 25mph
Location:  39.78°N, 93.07°W
Report Text: KIRK 291555Z AUTO 33013G22KT 10SM OVC020 03/M01 A3019 RMK AO2 SLP230 T00281011
Loading
Personal Weather Stations






























Interactive Weather Map New forecast layout! Learn more

10-Day Weather Forecast

Advertisements
Track Severe Weather on mobile